sensor_id;sensor_type;location;lat;lon;timestamp;P1;durP1;ratioP1;P2;durP2;ratioP2
33579;SDS011;19909;43.644;-79.438;2023-06-10T00:00:42;336.42;;;255.95;;
33579;SDS011;19909;43.644;-79.438;2023-06-10T00:03:09;334.38;;;272.15;;
33579;SDS011;19909;43.644;-79.438;2023-06-10T00:05:36;351.00;;;268.33;;
33579;SDS011;19909;43.644;-79.438;2023-06-10T00:08:04;349.40;;;269.15;;
33579;SDS011;19909;43.644;-79.438;2023-06-10T00:10:37;360.33;;;279.55;;
33579;SDS011;19909;43.644;-79.438;2023-06-10T00:13:04;342.55;;;264.52;;
33579;SDS011;19909;43.644;-79.438;2023-06-10T00:15:32;352.40;;;272.52;;
33579;SDS011;19909;43.644;-79.438;2023-06-10T00:17:59;325.48;;;250.15;;
33579;SDS011;19909;43.644;-79.438;2023-06-10T00:20:26;328.92;;;263.25;;
33579;SDS011;19909;43.644;-79.438;2023-06-10T00:22:52;328.05;;;257.65;;
33579;SDS011;19909;43.644;-79.438;2023-06-10T00:25:18;346.38;;;274.70;;
33579;SDS011;19909;43.644;-79.438;2023-06-10T00:27:45;345.48;;;274.33;;
33579;SDS011;19909;43.644;-79.438;2023-06-10T00:30:11;341.30;;;270.70;;
33579;SDS011;19909;43.644;-79.438;2023-06-10T00:32:37;332.73;;;262.77;;
33579;SDS011;19909;43.644;-79.438;2023-06-10T00:35:04;318.05;;;261.20;;
33579;SDS011;19909;43.644;-79.438;2023-06-10T00:37:31;323.40;;;259.45;;
33579;SDS011;19909;43.644;-79.438;2023-06-10T00:40:00;303.23;;;248.68;;
33579;SDS011;19909;43.644;-79.438;2023-06-10T00:42:27;299.02;;;243.48;;
33579;SDS011;19909;43.644;-79.438;2023-06-10T00:44:54;293.80;;;239.57;;
33579;SDS011;19909;43.644;-79.438;2023-06-10T00:47:21;281.42;;;231.00;;
33579;SDS011;19909;43.644;-79.438;2023-06-10T00:49:47;288.52;;;237.02;;
33579;SDS011;19909;43.644;-79.438;2023-06-10T00:52:15;292.13;;;239.50;;
33579;SDS011;19909;43.644;-79.438;2023-06-10T00:54:44;271.63;;;224.52;;
33579;SDS011;19909;43.644;-79.438;2023-06-10T00:57:11;274.17;;;233.60;;
33579;SDS011;19909;43.644;-79.438;2023-06-10T00:59:41;275.55;;;229.20;;
33579;SDS011;19909;43.644;-79.438;2023-06-10T01:02:12;269.10;;;221.70;;
33579;SDS011;19909;43.644;-79.438;2023-06-10T01:04:38;271.67;;;226.90;;
33579;SDS011;19909;43.644;-79.438;2023-06-10T01:07:20;269.35;;;224.40;;
33579;SDS011;19909;43.644;-79.438;2023-06-10T01:10:19;254.98;;;213.38;;
33579;SDS011;19909;43.644;-79.438;2023-06-10T01:13:03;249.20;;;205.48;;
33579;SDS011;19909;43.644;-79.438;2023-06-10T01:15:34;229.73;;;192.80;;
33579;SDS011;19909;43.644;-79.438;2023-06-10T01:18:02;212.70;;;181.18;;
33579;SDS011;19909;43.644;-79.438;2023-06-10T01:20:30;224.30;;;189.95;;
33579;SDS011;19909;43.644;-79.438;2023-06-10T01:22:58;216.75;;;186.48;;
33579;SDS011;19909;43.644;-79.438;2023-06-10T01:25:26;222.48;;;189.07;;
33579;SDS011;19909;43.644;-79.438;2023-06-10T01:33:59;207.57;;;173.25;;
33579;SDS011;19909;43.644;-79.438;2023-06-10T01:36:27;198.20;;;163.98;;
33579;SDS011;19909;43.644;-79.438;2023-06-10T01:38:54;202.95;;;170.88;;
33579;SDS011;19909;43.644;-79.438;2023-06-10T01:41:21;188.50;;;158.00;;
33579;SDS011;19909;43.644;-79.438;2023-06-10T01:43:48;185.38;;;151.65;;
33579;SDS011;19909;43.644;-79.438;2023-06-10T01:46:15;174.77;;;146.68;;
33579;SDS011;19909;43.644;-79.438;2023-06-10T01:48:44;164.05;;;138.50;;
33579;SDS011;19909;43.644;-79.438;2023-06-10T01:51:11;163.27;;;138.27;;
33579;SDS011;19909;43.644;-79.438;2023-06-10T01:53:37;157.15;;;137.82;;
33579;SDS011;19909;43.644;-79.438;2023-06-10T01:56:03;161.88;;;138.52;;
33579;SDS011;19909;43.644;-79.438;2023-06-10T01:58:29;156.52;;;134.07;;
33579;SDS011;19909;43.644;-79.438;2023-06-10T02:00:55;152.35;;;127.10;;
33579;SDS011;19909;43.644;-79.438;2023-06-10T02:03:22;159.73;;;135.68;;
33579;SDS011;19909;43.644;-79.438;2023-06-10T02:05:48;153.10;;;129.90;;
33579;SDS011;19909;43.644;-79.438;2023-06-10T02:08:15;149.18;;;130.07;;
33579;SDS011;19909;43.644;-79.438;2023-06-10T02:10:41;144.50;;;128.55;;
33579;SDS011;19909;43.644;-79.438;2023-06-10T02:13:08;139.25;;;121.65;;
33579;SDS011;19909;43.644;-79.438;2023-06-10T02:18:02;121.30;;;105.80;;
33579;SDS011;19909;43.644;-79.438;2023-06-10T02:20:28;120.45;;;106.40;;
33579;SDS011;19909;43.644;-79.438;2023-06-10T02:22:55;117.50;;;101.05;;
33579;SDS011;19909;43.644;-79.438;2023-06-10T02:25:21;111.57;;;96.82;;
33579;SDS011;19909;43.644;-79.438;2023-06-10T02:27:47;114.72;;;100.78;;
33579;SDS011;19909;43.644;-79.438;2023-06-10T02:30:14;116.05;;;101.65;;
33579;SDS011;19909;43.644;-79.438;2023-06-10T02:32:41;113.75;;;101.30;;
33579;SDS011;19909;43.644;-79.438;2023-06-10T02:35:07;111.60;;;99.15;;
33579;SDS011;19909;43.644;-79.438;2023-06-10T02:37:38;114.45;;;100.10;;
33579;SDS011;19909;43.644;-79.438;2023-06-10T02:40:04;106.50;;;94.85;;
33579;SDS011;19909;43.644;-79.438;2023-06-10T02:42:31;103.47;;;91.47;;
33579;SDS011;19909;43.644;-79.438;2023-06-10T02:44:57;98.05;;;84.15;;
33579;SDS011;19909;43.644;-79.438;2023-06-10T02:47:24;91.38;;;79.10;;
33579;SDS011;19909;43.644;-79.438;2023-06-10T02:49:50;89.78;;;79.97;;
33579;SDS011;19909;43.644;-79.438;2023-06-10T02:52:17;86.65;;;76.22;;
33579;SDS011;19909;43.644;-79.438;2023-06-10T02:54:43;84.22;;;75.03;;
33579;SDS011;19909;43.644;-79.438;2023-06-10T02:57:10;82.90;;;72.25;;
33579;SDS011;19909;43.644;-79.438;2023-06-10T02:59:39;83.90;;;74.72;;
33579;SDS011;19909;43.644;-79.438;2023-06-10T03:02:06;81.95;;;73.07;;
33579;SDS011;19909;43.644;-79.438;2023-06-10T03:04:33;79.40;;;71.03;;
33579;SDS011;19909;43.644;-79.438;2023-06-10T03:07:02;88.82;;;76.50;;
33579;SDS011;19909;43.644;-79.438;2023-06-10T03:09:32;73.20;;;65.13;;
33579;SDS011;19909;43.644;-79.438;2023-06-10T03:11:58;78.15;;;69.85;;
33579;SDS011;19909;43.644;-79.438;2023-06-10T03:14:25;76.03;;;67.75;;
33579;SDS011;19909;43.644;-79.438;2023-06-10T03:16:52;67.80;;;60.47;;
33579;SDS011;19909;43.644;-79.438;2023-06-10T03:19:18;65.75;;;58.47;;
33579;SDS011;19909;43.644;-79.438;2023-06-10T03:21:49;65.18;;;58.08;;
33579;SDS011;19909;43.644;-79.438;2023-06-10T03:24:20;68.45;;;60.97;;
33579;SDS011;19909;43.644;-79.438;2023-06-10T03:26:47;66.70;;;59.28;;
33579;SDS011;19909;43.644;-79.438;2023-06-10T03:29:13;62.17;;;55.13;;
33579;SDS011;19909;43.644;-79.438;2023-06-10T03:31:39;63.72;;;56.75;;
33579;SDS011;19909;43.644;-79.438;2023-06-10T03:34:05;63.47;;;56.55;;
33579;SDS011;19909;43.644;-79.438;2023-06-10T03:36:31;60.70;;;53.63;;
33579;SDS011;19909;43.644;-79.438;2023-06-10T03:38:58;61.92;;;55.35;;
33579;SDS011;19909;43.644;-79.438;2023-06-10T03:41:24;58.42;;;51.97;;
33579;SDS011;19909;43.644;-79.438;2023-06-10T03:43:50;55.70;;;49.72;;
33579;SDS011;19909;43.644;-79.438;2023-06-10T03:46:17;54.03;;;48.15;;
33579;SDS011;19909;43.644;-79.438;2023-06-10T03:48:43;46.53;;;41.20;;
33579;SDS011;19909;43.644;-79.438;2023-06-10T03:51:10;53.08;;;47.42;;
33579;SDS011;19909;43.644;-79.438;2023-06-10T03:53:36;48.00;;;42.92;;
33579;SDS011;19909;43.644;-79.438;2023-06-10T03:56:02;50.03;;;44.72;;
33579;SDS011;19909;43.644;-79.438;2023-06-10T03:58:28;49.75;;;44.20;;
33579;SDS011;19909;43.644;-79.438;2023-06-10T04:00:54;48.38;;;43.30;;
33579;SDS011;19909;43.644;-79.438;2023-06-10T04:03:20;47.92;;;42.80;;
33579;SDS011;19909;43.644;-79.438;2023-06-10T04:05:48;50.75;;;45.22;;
33579;SDS011;19909;43.644;-79.438;2023-06-10T04:08:15;47.75;;;42.78;;
33579;SDS011;19909;43.644;-79.438;2023-06-10T04:10:41;47.10;;;42.00;;
33579;SDS011;19909;43.644;-79.438;2023-06-10T04:13:07;43.60;;;38.90;;
33579;SDS011;19909;43.644;-79.438;2023-06-10T04:15:34;38.13;;;34.25;;
33579;SDS011;19909;43.644;-79.438;2023-06-10T04:18:01;35.90;;;32.15;;
33579;SDS011;19909;43.644;-79.438;2023-06-10T04:20:27;38.67;;;34.25;;
33579;SDS011;19909;43.644;-79.438;2023-06-10T04:22:53;39.92;;;35.75;;
33579;SDS011;19909;43.644;-79.438;2023-06-10T04:25:20;39.42;;;35.00;;
33579;SDS011;19909;43.644;-79.438;2023-06-10T04:27:46;36.03;;;32.22;;
33579;SDS011;19909;43.644;-79.438;2023-06-10T04:30:12;37.95;;;34.05;;
33579;SDS011;19909;43.644;-79.438;2023-06-10T04:32:39;38.22;;;34.25;;
33579;SDS011;19909;43.644;-79.438;2023-06-10T04:35:05;38.08;;;34.20;;
33579;SDS011;19909;43.644;-79.438;2023-06-10T04:37:31;36.13;;;32.45;;
33579;SDS011;19909;43.644;-79.438;2023-06-10T04:39:58;37.42;;;32.75;;
33579;SDS011;19909;43.644;-79.438;2023-06-10T04:42:24;34.90;;;31.13;;
33579;SDS011;19909;43.644;-79.438;2023-06-10T04:44:50;34.08;;;30.52;;
33579;SDS011;19909;43.644;-79.438;2023-06-10T04:47:16;30.55;;;27.30;;
33579;SDS011;19909;43.644;-79.438;2023-06-10T04:49:42;29.75;;;26.75;;
33579;SDS011;19909;43.644;-79.438;2023-06-10T04:52:08;30.95;;;27.83;;
33579;SDS011;19909;43.644;-79.438;2023-06-10T04:54:35;30.45;;;27.38;;
33579;SDS011;19909;43.644;-79.438;2023-06-10T04:57:01;29.35;;;26.17;;
33579;SDS011;19909;43.644;-79.438;2023-06-10T04:59:27;30.20;;;27.00;;
33579;SDS011;19909;43.644;-79.438;2023-06-10T05:01:55;31.42;;;28.23;;
33579;SDS011;19909;43.644;-79.438;2023-06-10T05:04:22;31.10;;;27.90;;
33579;SDS011;19909;43.644;-79.438;2023-06-10T05:06:48;28.75;;;25.85;;
33579;SDS011;19909;43.644;-79.438;2023-06-10T05:09:14;29.08;;;26.20;;
33579;SDS011;19909;43.644;-79.438;2023-06-10T05:11:41;30.10;;;26.98;;
33579;SDS011;19909;43.644;-79.438;2023-06-10T05:14:07;28.45;;;25.67;;
33579;SDS011;19909;43.644;-79.438;2023-06-10T05:16:33;25.73;;;23.13;;
33579;SDS011;19909;43.644;-79.438;2023-06-10T05:19:00;25.05;;;22.52;;
33579;SDS011;19909;43.644;-79.438;2023-06-10T05:21:26;25.90;;;23.30;;
33579;SDS011;19909;43.644;-79.438;2023-06-10T05:23:52;24.88;;;22.42;;
33579;SDS011;19909;43.644;-79.438;2023-06-10T05:26:18;24.40;;;22.00;;
33579;SDS011;19909;43.644;-79.438;2023-06-10T05:28:45;24.60;;;22.13;;
33579;SDS011;19909;43.644;-79.438;2023-06-10T05:31:11;25.08;;;22.67;;
33579;SDS011;19909;43.644;-79.438;2023-06-10T05:33:37;24.35;;;22.05;;
33579;SDS011;19909;43.644;-79.438;2023-06-10T05:36:03;25.38;;;22.73;;
33579;SDS011;19909;43.644;-79.438;2023-06-10T05:38:29;25.42;;;22.83;;
33579;SDS011;19909;43.644;-79.438;2023-06-10T05:40:56;23.80;;;21.42;;
33579;SDS011;19909;43.644;-79.438;2023-06-10T05:43:22;24.52;;;22.02;;
33579;SDS011;19909;43.644;-79.438;2023-06-10T05:45:48;21.85;;;19.65;;
33579;SDS011;19909;43.644;-79.438;2023-06-10T05:48:14;21.67;;;19.58;;
33579;SDS011;19909;43.644;-79.438;2023-06-10T05:50:40;20.80;;;18.63;;
33579;SDS011;19909;43.644;-79.438;2023-06-10T05:53:08;21.15;;;19.02;;
33579;SDS011;19909;43.644;-79.438;2023-06-10T05:55:41;21.42;;;19.05;;
33579;SDS011;19909;43.644;-79.438;2023-06-10T05:58:08;21.55;;;19.27;;
33579;SDS011;19909;43.644;-79.438;2023-06-10T06:00:34;21.63;;;19.42;;
33579;SDS011;19909;43.644;-79.438;2023-06-10T06:03:00;21.42;;;19.42;;
33579;SDS011;19909;43.644;-79.438;2023-06-10T06:05:27;21.80;;;19.63;;
33579;SDS011;19909;43.644;-79.438;2023-06-10T06:07:53;21.08;;;18.98;;
33579;SDS011;19909;43.644;-79.438;2023-06-10T06:10:19;21.55;;;19.27;;
33579;SDS011;19909;43.644;-79.438;2023-06-10T06:12:45;20.42;;;18.45;;
33579;SDS011;19909;43.644;-79.438;2023-06-10T06:15:11;21.10;;;19.08;;
33579;SDS011;19909;43.644;-79.438;2023-06-10T06:17:37;19.20;;;17.30;;
33579;SDS011;19909;43.644;-79.438;2023-06-10T06:20:04;18.77;;;16.98;;
33579;SDS011;19909;43.644;-79.438;2023-06-10T06:22:30;19.23;;;17.33;;
33579;SDS011;19909;43.644;-79.438;2023-06-10T06:24:56;19.42;;;17.52;;
33579;SDS011;19909;43.644;-79.438;2023-06-10T06:27:22;18.73;;;16.83;;
33579;SDS011;19909;43.644;-79.438;2023-06-10T06:29:49;18.73;;;16.90;;
33579;SDS011;19909;43.644;-79.438;2023-06-10T06:32:15;18.90;;;16.90;;
33579;SDS011;19909;43.644;-79.438;2023-06-10T06:34:42;19.33;;;17.15;;
33579;SDS011;19909;43.644;-79.438;2023-06-10T06:37:08;17.88;;;16.08;;
33579;SDS011;19909;43.644;-79.438;2023-06-10T06:39:34;18.70;;;16.90;;
33579;SDS011;19909;43.644;-79.438;2023-06-10T06:42:00;18.90;;;16.88;;
33579;SDS011;19909;43.644;-79.438;2023-06-10T06:44:26;17.63;;;15.85;;
33579;SDS011;19909;43.644;-79.438;2023-06-10T06:46:52;16.77;;;15.13;;
33579;SDS011;19909;43.644;-79.438;2023-06-10T06:49:19;18.05;;;16.27;;
33579;SDS011;19909;43.644;-79.438;2023-06-10T06:51:45;16.83;;;15.20;;
33579;SDS011;19909;43.644;-79.438;2023-06-10T06:54:11;16.67;;;15.18;;
33579;SDS011;19909;43.644;-79.438;2023-06-10T06:56:37;17.55;;;15.77;;
33579;SDS011;19909;43.644;-79.438;2023-06-10T06:59:03;16.13;;;14.45;;
33579;SDS011;19909;43.644;-79.438;2023-06-10T07:01:30;16.75;;;15.10;;
33579;SDS011;19909;43.644;-79.438;2023-06-10T07:03:58;16.60;;;15.00;;
33579;SDS011;19909;43.644;-79.438;2023-06-10T07:06:24;17.58;;;15.88;;
33579;SDS011;19909;43.644;-79.438;2023-06-10T07:08:51;16.55;;;14.98;;
33579;SDS011;19909;43.644;-79.438;2023-06-10T07:11:17;16.55;;;15.02;;
33579;SDS011;19909;43.644;-79.438;2023-06-10T07:13:43;15.95;;;14.45;;
33579;SDS011;19909;43.644;-79.438;2023-06-10T07:16:09;15.10;;;13.60;;
33579;SDS011;19909;43.644;-79.438;2023-06-10T07:18:35;15.45;;;13.85;;
33579;SDS011;19909;43.644;-79.438;2023-06-10T07:21:01;15.18;;;13.68;;
33579;SDS011;19909;43.644;-79.438;2023-06-10T07:23:28;16.00;;;14.40;;
33579;SDS011;19909;43.644;-79.438;2023-06-10T07:25:54;15.38;;;13.75;;
33579;SDS011;19909;43.644;-79.438;2023-06-10T07:28:20;14.98;;;13.57;;
33579;SDS011;19909;43.644;-79.438;2023-06-10T07:30:46;15.38;;;13.77;;
33579;SDS011;19909;43.644;-79.438;2023-06-10T07:33:12;15.23;;;13.82;;
33579;SDS011;19909;43.644;-79.438;2023-06-10T07:35:38;14.15;;;12.85;;
33579;SDS011;19909;43.644;-79.438;2023-06-10T07:38:04;14.43;;;13.02;;
33579;SDS011;19909;43.644;-79.438;2023-06-10T07:40:31;14.68;;;13.20;;
33579;SDS011;19909;43.644;-79.438;2023-06-10T07:42:57;15.27;;;13.88;;
33579;SDS011;19909;43.644;-79.438;2023-06-10T07:45:23;14.05;;;12.75;;
33579;SDS011;19909;43.644;-79.438;2023-06-10T07:47:50;14.32;;;12.93;;
33579;SDS011;19909;43.644;-79.438;2023-06-10T07:50:16;13.52;;;12.32;;
33579;SDS011;19909;43.644;-79.438;2023-06-10T07:52:42;14.38;;;13.07;;
33579;SDS011;19909;43.644;-79.438;2023-06-10T07:55:08;13.73;;;12.43;;
33579;SDS011;19909;43.644;-79.438;2023-06-10T07:57:34;14.10;;;12.70;;
33579;SDS011;19909;43.644;-79.438;2023-06-10T08:00:02;14.48;;;13.18;;
33579;SDS011;19909;43.644;-79.438;2023-06-10T08:02:30;14.30;;;12.95;;
33579;SDS011;19909;43.644;-79.438;2023-06-10T08:04:56;14.25;;;12.95;;
33579;SDS011;19909;43.644;-79.438;2023-06-10T08:07:22;12.82;;;11.63;;
33579;SDS011;19909;43.644;-79.438;2023-06-10T08:09:48;13.32;;;12.10;;
33579;SDS011;19909;43.644;-79.438;2023-06-10T08:12:15;13.00;;;11.85;;
33579;SDS011;19909;43.644;-79.438;2023-06-10T08:14:41;14.13;;;12.63;;
33579;SDS011;19909;43.644;-79.438;2023-06-10T08:17:07;13.35;;;12.05;;
33579;SDS011;19909;43.644;-79.438;2023-06-10T08:19:33;13.38;;;12.18;;
33579;SDS011;19909;43.644;-79.438;2023-06-10T08:21:59;13.75;;;12.55;;
33579;SDS011;19909;43.644;-79.438;2023-06-10T08:24:25;12.85;;;11.60;;
33579;SDS011;19909;43.644;-79.438;2023-06-10T08:26:52;14.18;;;11.98;;
33579;SDS011;19909;43.644;-79.438;2023-06-10T08:29:18;13.05;;;11.77;;
33579;SDS011;19909;43.644;-79.438;2023-06-10T08:31:44;12.82;;;11.55;;
33579;SDS011;19909;43.644;-79.438;2023-06-10T08:34:10;13.88;;;12.48;;
33579;SDS011;19909;43.644;-79.438;2023-06-10T08:36:37;12.88;;;11.77;;
33579;SDS011;19909;43.644;-79.438;2023-06-10T08:39:03;12.40;;;11.20;;
33579;SDS011;19909;43.644;-79.438;2023-06-10T08:41:30;12.82;;;11.65;;
33579;SDS011;19909;43.644;-79.438;2023-06-10T08:46:38;13.30;;;12.00;;
33579;SDS011;19909;43.644;-79.438;2023-06-10T08:49:08;13.07;;;11.90;;
33579;SDS011;19909;43.644;-79.438;2023-06-10T08:51:35;12.75;;;11.55;;
33579;SDS011;19909;43.644;-79.438;2023-06-10T08:54:13;12.23;;;11.13;;
33579;SDS011;19909;43.644;-79.438;2023-06-10T08:56:46;13.70;;;12.38;;
33579;SDS011;19909;43.644;-79.438;2023-06-10T08:59:18;13.70;;;12.38;;
33579;SDS011;19909;43.644;-79.438;2023-06-10T09:01:45;13.00;;;11.80;;
33579;SDS011;19909;43.644;-79.438;2023-06-10T09:04:12;13.65;;;12.45;;
33579;SDS011;19909;43.644;-79.438;2023-06-10T09:06:39;13.10;;;11.90;;
33579;SDS011;19909;43.644;-79.438;2023-06-10T09:09:06;12.98;;;11.80;;
33579;SDS011;19909;43.644;-79.438;2023-06-10T09:11:33;12.88;;;11.75;;
33579;SDS011;19909;43.644;-79.438;2023-06-10T09:13:59;13.77;;;12.45;;
33579;SDS011;19909;43.644;-79.438;2023-06-10T09:16:25;13.55;;;12.20;;
33579;SDS011;19909;43.644;-79.438;2023-06-10T09:18:51;12.73;;;11.63;;
33579;SDS011;19909;43.644;-79.438;2023-06-10T09:21:21;12.95;;;11.80;;
33579;SDS011;19909;43.644;-79.438;2023-06-10T09:23:48;14.55;;;13.05;;
33579;SDS011;19909;43.644;-79.438;2023-06-10T09:26:14;15.63;;;14.13;;
33579;SDS011;19909;43.644;-79.438;2023-06-10T09:28:44;13.77;;;12.57;;
33579;SDS011;19909;43.644;-79.438;2023-06-10T09:31:12;14.50;;;13.20;;
33579;SDS011;19909;43.644;-79.438;2023-06-10T09:33:39;13.50;;;12.38;;
33579;SDS011;19909;43.644;-79.438;2023-06-10T09:36:05;14.57;;;13.23;;
33579;SDS011;19909;43.644;-79.438;2023-06-10T09:38:33;13.88;;;12.68;;
33579;SDS011;19909;43.644;-79.438;2023-06-10T09:41:00;14.20;;;12.90;;
33579;SDS011;19909;43.644;-79.438;2023-06-10T09:43:43;12.75;;;11.55;;
33579;SDS011;19909;43.644;-79.438;2023-06-10T09:46:20;13.90;;;12.65;;
33579;SDS011;19909;43.644;-79.438;2023-06-10T09:48:47;13.55;;;12.40;;
33579;SDS011;19909;43.644;-79.438;2023-06-10T09:51:13;13.88;;;12.57;;
33579;SDS011;19909;43.644;-79.438;2023-06-10T09:53:42;14.18;;;12.88;;
33579;SDS011;19909;43.644;-79.438;2023-06-10T09:56:12;14.20;;;12.90;;
33579;SDS011;19909;43.644;-79.438;2023-06-10T09:58:39;13.60;;;12.40;;
33579;SDS011;19909;43.644;-79.438;2023-06-10T10:01:09;13.68;;;12.38;;
33579;SDS011;19909;43.644;-79.438;2023-06-10T10:03:50;14.70;;;13.30;;
33579;SDS011;19909;43.644;-79.438;2023-06-10T10:06:17;13.82;;;12.60;;
33579;SDS011;19909;43.644;-79.438;2023-06-10T10:08:45;14.40;;;13.10;;
33579;SDS011;19909;43.644;-79.438;2023-06-10T10:11:12;13.88;;;12.68;;
33579;SDS011;19909;43.644;-79.438;2023-06-10T10:13:40;14.70;;;13.35;;
33579;SDS011;19909;43.644;-79.438;2023-06-10T10:16:11;13.65;;;12.40;;
33579;SDS011;19909;43.644;-79.438;2023-06-10T10:18:41;13.68;;;12.48;;
33579;SDS011;19909;43.644;-79.438;2023-06-10T10:21:12;14.47;;;13.17;;
33579;SDS011;19909;43.644;-79.438;2023-06-10T10:24:03;14.35;;;13.05;;
33579;SDS011;19909;43.644;-79.438;2023-06-10T10:26:31;13.80;;;12.60;;
33579;SDS011;19909;43.644;-79.438;2023-06-10T10:29:02;13.73;;;12.40;;
33579;SDS011;19909;43.644;-79.438;2023-06-10T10:31:43;14.77;;;12.77;;
33579;SDS011;19909;43.644;-79.438;2023-06-10T10:34:12;13.82;;;12.57;;
33579;SDS011;19909;43.644;-79.438;2023-06-10T10:36:42;14.02;;;12.82;;
33579;SDS011;19909;43.644;-79.438;2023-06-10T10:39:09;13.55;;;12.35;;
33579;SDS011;19909;43.644;-79.438;2023-06-10T10:41:37;15.52;;;13.90;;
33579;SDS011;19909;43.644;-79.438;2023-06-10T10:44:05;13.52;;;12.27;;
33579;SDS011;19909;43.644;-79.438;2023-06-10T10:46:43;13.83;;;12.50;;
33579;SDS011;19909;43.644;-79.438;2023-06-10T10:49:13;13.25;;;12.05;;
33579;SDS011;19909;43.644;-79.438;2023-06-10T10:52:00;13.02;;;11.98;;
33579;SDS011;19909;43.644;-79.438;2023-06-10T10:54:30;13.65;;;12.45;;
33579;SDS011;19909;43.644;-79.438;2023-06-10T10:57:11;13.93;;;12.73;;
33579;SDS011;19909;43.644;-79.438;2023-06-10T10:59:56;13.18;;;11.95;;
33579;SDS011;19909;43.644;-79.438;2023-06-10T11:04:59;13.75;;;12.45;;
33579;SDS011;19909;43.644;-79.438;2023-06-10T11:07:26;12.82;;;11.55;;
33579;SDS011;19909;43.644;-79.438;2023-06-10T11:09:59;13.13;;;11.93;;
33579;SDS011;19909;43.644;-79.438;2023-06-10T11:12:41;12.80;;;11.55;;
33579;SDS011;19909;43.644;-79.438;2023-06-10T11:15:16;12.95;;;11.73;;
33579;SDS011;19909;43.644;-79.438;2023-06-10T11:33:54;13.45;;;12.25;;
33579;SDS011;19909;43.644;-79.438;2023-06-10T11:36:22;13.55;;;12.35;;
33579;SDS011;19909;43.644;-79.438;2023-06-10T11:39:07;13.00;;;11.80;;
33579;SDS011;19909;43.644;-79.438;2023-06-10T11:41:34;12.32;;;11.23;;
33579;SDS011;19909;43.644;-79.438;2023-06-10T11:44:07;12.95;;;11.75;;
33579;SDS011;19909;43.644;-79.438;2023-06-10T11:46:37;13.27;;;12.10;;
33579;SDS011;19909;43.644;-79.438;2023-06-10T11:49:05;12.93;;;11.82;;
33579;SDS011;19909;43.644;-79.438;2023-06-10T11:51:33;12.75;;;11.65;;
33579;SDS011;19909;43.644;-79.438;2023-06-10T11:54:04;13.27;;;12.15;;
33579;SDS011;19909;43.644;-79.438;2023-06-10T11:56:31;12.27;;;11.18;;
33579;SDS011;19909;43.644;-79.438;2023-06-10T11:58:59;12.43;;;11.32;;
33579;SDS011;19909;43.644;-79.438;2023-06-10T12:01:29;13.27;;;12.07;;
33579;SDS011;19909;43.644;-79.438;2023-06-10T12:04:00;13.05;;;11.85;;
33579;SDS011;19909;43.644;-79.438;2023-06-10T12:06:39;13.52;;;12.23;;
33579;SDS011;19909;43.644;-79.438;2023-06-10T12:09:19;12.50;;;11.40;;
33579;SDS011;19909;43.644;-79.438;2023-06-10T12:20:02;12.45;;;11.25;;
33579;SDS011;19909;43.644;-79.438;2023-06-10T12:22:37;12.73;;;11.60;;
33579;SDS011;19909;43.644;-79.438;2023-06-10T12:25:03;13.13;;;11.95;;
33579;SDS011;19909;43.644;-79.438;2023-06-10T12:27:32;13.07;;;11.75;;
33579;SDS011;19909;43.644;-79.438;2023-06-10T12:29:59;13.20;;;11.95;;
33579;SDS011;19909;43.644;-79.438;2023-06-10T12:32:41;12.40;;;11.30;;
33579;SDS011;19909;43.644;-79.438;2023-06-10T12:35:09;16.15;;;12.35;;
33579;SDS011;19909;43.644;-79.438;2023-06-10T12:37:38;16.52;;;12.57;;
33579;SDS011;19909;43.644;-79.438;2023-06-10T12:40:05;14.18;;;12.13;;
33579;SDS011;19909;43.644;-79.438;2023-06-10T12:42:32;14.07;;;11.55;;
33579;SDS011;19909;43.644;-79.438;2023-06-10T12:45:02;13.25;;;11.30;;
33579;SDS011;19909;43.644;-79.438;2023-06-10T12:47:36;13.13;;;11.82;;
33579;SDS011;19909;43.644;-79.438;2023-06-10T12:50:06;14.45;;;11.98;;
33579;SDS011;19909;43.644;-79.438;2023-06-10T12:52:33;13.10;;;11.93;;
33579;SDS011;19909;43.644;-79.438;2023-06-10T12:54:59;13.50;;;12.10;;
33579;SDS011;19909;43.644;-79.438;2023-06-10T12:57:26;13.50;;;12.23;;
33579;SDS011;19909;43.644;-79.438;2023-06-10T12:59:52;13.20;;;11.98;;
33579;SDS011;19909;43.644;-79.438;2023-06-10T13:02:19;12.85;;;11.65;;
33579;SDS011;19909;43.644;-79.438;2023-06-10T13:04:45;13.38;;;12.02;;
33579;SDS011;19909;43.644;-79.438;2023-06-10T13:07:12;13.88;;;11.77;;
33579;SDS011;19909;43.644;-79.438;2023-06-10T13:09:38;12.43;;;11.32;;
33579;SDS011;19909;43.644;-79.438;2023-06-10T13:12:05;12.55;;;11.20;;
33579;SDS011;19909;43.644;-79.438;2023-06-10T13:14:31;12.13;;;10.85;;
33579;SDS011;19909;43.644;-79.438;2023-06-10T13:16:58;12.90;;;11.80;;
33579;SDS011;19909;43.644;-79.438;2023-06-10T13:19:24;12.77;;;11.57;;
33579;SDS011;19909;43.644;-79.438;2023-06-10T13:21:51;12.27;;;11.15;;
33579;SDS011;19909;43.644;-79.438;2023-06-10T13:24:17;11.20;;;10.10;;
33579;SDS011;19909;43.644;-79.438;2023-06-10T13:26:45;11.90;;;10.80;;
33579;SDS011;19909;43.644;-79.438;2023-06-10T13:29:11;12.88;;;11.40;;
33579;SDS011;19909;43.644;-79.438;2023-06-10T13:31:39;13.00;;;11.75;;
33579;SDS011;19909;43.644;-79.438;2023-06-10T13:34:06;12.57;;;11.40;;
33579;SDS011;19909;43.644;-79.438;2023-06-10T13:36:32;11.60;;;10.57;;
33579;SDS011;19909;43.644;-79.438;2023-06-10T13:38:58;12.25;;;11.10;;
33579;SDS011;19909;43.644;-79.438;2023-06-10T13:41:25;12.23;;;11.02;;
33579;SDS011;19909;43.644;-79.438;2023-06-10T13:43:54;11.20;;;10.20;;
33579;SDS011;19909;43.644;-79.438;2023-06-10T13:46:20;11.35;;;10.32;;
33579;SDS011;19909;43.644;-79.438;2023-06-10T13:48:47;11.27;;;10.23;;
33579;SDS011;19909;43.644;-79.438;2023-06-10T13:51:13;11.25;;;10.25;;
33579;SDS011;19909;43.644;-79.438;2023-06-10T13:53:40;12.00;;;10.90;;
33579;SDS011;19909;43.644;-79.438;2023-06-10T13:56:06;11.32;;;10.23;;
33579;SDS011;19909;43.644;-79.438;2023-06-10T13:58:32;11.57;;;10.52;;
33579;SDS011;19909;43.644;-79.438;2023-06-10T14:01:04;12.30;;;10.93;;
33579;SDS011;19909;43.644;-79.438;2023-06-10T14:03:30;11.73;;;10.68;;
33579;SDS011;19909;43.644;-79.438;2023-06-10T14:05:56;11.38;;;10.40;;
33579;SDS011;19909;43.644;-79.438;2023-06-10T14:08:23;11.80;;;10.70;;
33579;SDS011;19909;43.644;-79.438;2023-06-10T14:10:49;11.35;;;10.35;;
33579;SDS011;19909;43.644;-79.438;2023-06-10T14:13:16;9.98;;;8.98;;
33579;SDS011;19909;43.644;-79.438;2023-06-10T14:15:43;11.18;;;10.10;;
33579;SDS011;19909;43.644;-79.438;2023-06-10T14:18:09;11.68;;;10.60;;
33579;SDS011;19909;43.644;-79.438;2023-06-10T14:20:36;11.13;;;10.13;;
33579;SDS011;19909;43.644;-79.438;2023-06-10T14:23:02;11.10;;;10.20;;
33579;SDS011;19909;43.644;-79.438;2023-06-10T14:25:28;10.88;;;9.98;;
33579;SDS011;19909;43.644;-79.438;2023-06-10T14:27:54;11.20;;;10.20;;
33579;SDS011;19909;43.644;-79.438;2023-06-10T14:30:20;11.13;;;9.98;;
33579;SDS011;19909;43.644;-79.438;2023-06-10T14:32:46;15.88;;;10.15;;
33579;SDS011;19909;43.644;-79.438;2023-06-10T14:35:12;10.38;;;9.43;;